createdAt,value
2022-09-24T00:00:54.566Z,99.17
2022-09-24T00:02:00.298Z,99.09
2022-09-24T00:03:05.869Z,98.99
2022-09-24T00:04:13.487Z,99.01
2022-09-24T00:05:18.514Z,99.18
2022-09-24T00:06:21.175Z,99.32
2022-09-24T00:07:24.567Z,98.69
2022-09-24T00:08:26.936Z,99.16
2022-09-24T00:09:30.440Z,99.17
2022-09-24T00:10:38.736Z,99.02
2022-09-24T00:11:47.895Z,98.92
2022-09-24T00:12:52.972Z,98.85
2022-09-24T00:13:57.403Z,98.16
2022-09-24T00:14:59.763Z,98.60
2022-09-24T00:16:08.500Z,98.31
2022-09-24T00:17:12.264Z,98.21
2022-09-24T00:18:16.447Z,98.82
2022-09-24T00:19:20.156Z,98.74
2022-09-24T00:20:23.037Z,98.51
2022-09-24T00:21:27.263Z,98.59
2022-09-24T00:22:32.554Z,98.47
2022-09-24T00:23:36.165Z,98.11
2022-09-24T00:24:56.796Z,97.78
2022-09-24T00:26:18.680Z,98.31
2022-09-24T00:27:22.399Z,98.57
2022-09-24T00:28:26.629Z,99.09
2022-09-24T00:29:30.035Z,99.20
2022-09-24T00:30:33.192Z,98.63
2022-09-24T00:31:36.585Z,98.87
2022-09-24T00:32:40.341Z,98.95
2022-09-24T00:33:44.047Z,98.44
2022-09-24T00:34:48.499Z,98.51
2022-09-24T00:35:53.049Z,98.69
2022-09-24T00:36:55.824Z,98.92
2022-09-24T00:37:59.746Z,99.35
2022-09-24T00:39:03.063Z,99.78
2022-09-24T00:40:09.257Z,99.34
2022-09-24T00:41:11.829Z,99.32
2022-09-24T00:42:19.301Z,99.71
2022-09-24T00:43:23.830Z,99.50
2022-09-24T00:44:47.620Z,100.00
2022-09-24T00:45:52.477Z,99.93
2022-09-24T00:46:55.778Z,99.19
2022-09-24T00:47:58.344Z,99.37
2022-09-24T00:49:06.595Z,99.00
2022-09-24T00:50:20.508Z,99.72
2022-09-24T00:51:25.797Z,99.54
2022-09-24T00:52:29.491Z,99.37
2022-09-24T00:53:32.998Z,98.95
2022-09-24T00:54:36.920Z,99.39
2022-09-24T00:55:41.471Z,98.69
2022-09-24T00:56:45.698Z,99.55
2022-09-24T00:57:49.732Z,98.87
2022-09-24T00:58:55.135Z,99.42
2022-09-24T00:59:58.724Z,99.11
2022-09-24T01:01:05.200Z,99.35
2022-09-24T01:02:09.656Z,98.95
2022-09-24T01:03:16.038Z,99.22
2022-09-24T01:04:20.997Z,99.24
2022-09-24T01:05:24.396Z,98.92
2022-09-24T01:06:27.907Z,99.02
2022-09-24T01:07:30.677Z,99.72
2022-09-24T01:08:34.497Z,99.44
2022-09-24T01:09:38.210Z,98.93
2022-09-24T01:10:49.347Z,98.98
2022-09-24T01:12:10.207Z,99.25
2022-09-24T01:13:16.597Z,99.17
2022-09-24T01:14:39.958Z,99.02
2022-09-24T01:15:46.574Z,98.73
2022-09-24T01:17:00.552Z,98.90
2022-09-24T01:18:14.970Z,98.52
2022-09-24T01:19:31.269Z,98.26
2022-09-24T01:20:55.231Z,98.44
2022-09-24T01:22:00.945Z,97.27
2022-09-24T01:23:05.592Z,97.41
2022-09-24T01:24:10.943Z,97.70
2022-09-24T01:25:23.576Z,97.68
2022-09-24T01:26:44.316Z,97.71
2022-09-24T01:27:53.881Z,97.33
2022-09-24T01:29:05.550Z,97.10
2022-09-24T01:30:14.967Z,97.33
2022-09-24T01:31:21.353Z,97.65
2022-09-24T01:32:30.212Z,98.15
2022-09-24T01:33:31.562Z,97.81
2022-09-24T01:34:40.349Z,97.59
2022-09-24T01:35:45.149Z,97.66
2022-09-24T01:36:49.646Z,97.78
2022-09-24T01:37:57.489Z,98.17
2022-09-24T01:39:02.035Z,98.53
2022-09-24T01:40:08.581Z,99.05
2022-09-24T01:41:12.702Z,98.72
2022-09-24T01:42:19.232Z,99.10
2022-09-24T01:43:23.162Z,99.07
2022-09-24T01:44:27.398Z,99.34
2022-09-24T01:45:31.985Z,99.07
2022-09-24T01:46:37.844Z,98.81
2022-09-24T01:47:42.975Z,98.66
2022-09-24T01:48:45.811Z,98.17
2022-09-24T01:49:49.308Z,98.53
2022-09-24T01:50:54.904Z,99.21
2022-09-24T01:52:02.167Z,99.83
2022-09-24T01:53:13.333Z,99.68
2022-09-24T01:54:22.549Z,99.01
2022-09-24T01:55:30.374Z,98.50
2022-09-24T01:56:35.746Z,98.36
2022-09-24T01:57:42.381Z,98.70
2022-09-24T01:58:48.906Z,98.56
2022-09-24T02:00:00.856Z,98.49
2022-09-24T02:01:08.719Z,98.30
2022-09-24T02:02:16.919Z,98.42
2022-09-24T02:03:23.384Z,98.13
2022-09-24T02:04:29.077Z,98.48
2022-09-24T02:05:40.063Z,99.28
2022-09-24T02:06:46.322Z,99.46
2022-09-24T02:07:51.191Z,98.82
2022-09-24T02:08:57.512Z,98.60
2022-09-24T02:10:02.059Z,98.43
2022-09-24T02:11:16.863Z,97.70
2022-09-24T02:12:26.839Z,97.73
2022-09-24T02:13:36.184Z,98.39
2022-09-24T02:14:45.430Z,98.56
2022-09-24T02:15:50.705Z,98.06
2022-09-24T02:16:55.826Z,97.91
2022-09-24T02:18:00.270Z,97.50
2022-09-24T02:19:05.508Z,97.57
2022-09-24T02:20:10.823Z,98.27
2022-09-24T02:21:17.184Z,98.43
2022-09-24T02:22:20.830Z,98.75
2022-09-24T02:23:26.530Z,98.25
2022-09-24T02:24:34.943Z,98.32
2022-09-24T02:25:40.330Z,98.12
2022-09-24T02:26:44.147Z,98.64
2022-09-24T02:27:47.862Z,97.98
2022-09-24T02:28:50.734Z,97.66
2022-09-24T02:29:54.350Z,97.89
2022-09-24T02:31:02.706Z,97.60
2022-09-24T02:32:08.516Z,97.59
2022-09-24T02:33:18.798Z,97.85
2022-09-24T02:34:25.443Z,97.34
2022-09-24T02:35:29.316Z,97.45
2022-09-24T02:36:32.607Z,97.78
2022-09-24T02:37:39.667Z,97.81
2022-09-24T02:38:42.753Z,97.71
2022-09-24T02:39:48.314Z,97.12
2022-09-24T02:40:52.689Z,97.33
2022-09-24T02:41:56.299Z,98.09
2022-09-24T02:43:00.873Z,97.51
2022-09-24T02:44:04.498Z,97.40
2022-09-24T02:45:08.356Z,97.72
2022-09-24T02:46:12.356Z,98.21
2022-09-24T02:47:16.014Z,98.02
2022-09-24T02:48:19.312Z,97.83
2022-09-24T02:49:22.604Z,98.34
2022-09-24T02:50:26.115Z,98.55
2022-09-24T02:51:28.470Z,98.73
2022-09-24T02:52:32.340Z,99.47
2022-09-24T02:53:35.899Z,100.00
2022-09-24T02:54:39.508Z,100.00
2022-09-24T02:55:43.225Z,99.56
2022-09-24T02:56:46.204Z,99.84
2022-09-24T02:57:50.863Z,100.00
2022-09-24T02:58:54.476Z,100.00
2022-09-24T02:59:56.835Z,100.00
2022-09-24T03:01:01.477Z,99.92
2022-09-24T03:02:08.972Z,100.00
2022-09-24T03:03:12.728Z,99.93
2022-09-24T03:04:15.834Z,99.34
2022-09-24T03:05:20.920Z,99.29
2022-09-24T03:06:25.793Z,99.15
2022-09-24T03:07:29.194Z,99.78
2022-09-24T03:08:32.905Z,99.31
2022-09-24T03:09:40.026Z,99.23
2022-09-24T03:10:45.662Z,99.21
2022-09-24T03:11:50.213Z,99.18
2022-09-24T03:12:52.561Z,98.97
2022-09-24T03:13:56.697Z,99.05
2022-09-24T03:15:02.604Z,98.84
2022-09-24T03:16:07.850Z,99.19
2022-09-24T03:17:13.375Z,99.51
2022-09-24T03:18:16.044Z,99.97
2022-09-24T03:19:25.266Z,99.99
2022-09-24T03:20:28.795Z,99.61
2022-09-24T03:21:34.184Z,99.46
2022-09-24T03:22:37.688Z,99.76
2022-09-24T03:23:43.123Z,99.28
2022-09-24T03:24:46.870Z,99.57
2022-09-24T03:25:49.248Z,100.00
2022-09-24T03:26:53.077Z,100.00
2022-09-24T03:27:58.583Z,99.65
2022-09-24T03:29:02.063Z,100.00
2022-09-24T03:30:23.636Z,100.00
2022-09-24T03:31:27.287Z,99.50
2022-09-24T03:32:33.524Z,99.12
2022-09-24T03:33:53.261Z,99.16
2022-09-24T03:34:58.650Z,99.82
2022-09-24T03:36:11.193Z,99.92
2022-09-24T03:37:14.641Z,99.81
2022-09-24T03:38:18.460Z,99.43
2022-09-24T03:39:23.113Z,98.93
2022-09-24T03:40:27.719Z,98.54
2022-09-24T03:41:31.479Z,98.17
2022-09-24T03:42:36.234Z,98.62
2022-09-24T03:43:39.330Z,99.01
2022-09-24T03:44:42.937Z,99.60
2022-09-24T03:45:45.912Z,98.90
2022-09-24T03:46:51.954Z,98.44
2022-09-24T03:47:56.375Z,98.36
2022-09-24T03:49:00.918Z,98.32
2022-09-24T03:50:04.638Z,98.24
2022-09-24T03:51:09.603Z,98.64
2022-09-24T03:52:13.841Z,98.93
2022-09-24T03:53:20.377Z,99.42
2022-09-24T03:54:22.732Z,98.87
2022-09-24T03:55:26.132Z,98.58
2022-09-24T03:56:33.171Z,98.15
2022-09-24T03:57:37.845Z,98.02
2022-09-24T03:58:41.347Z,98.36
2022-09-24T03:59:45.166Z,98.17
2022-09-24T04:00:48.772Z,97.99
2022-09-24T04:01:52.126Z,98.56
2022-09-24T04:02:55.047Z,98.60
2022-09-24T04:04:01.995Z,99.89
2022-09-24T04:05:05.816Z,99.85
2022-09-24T04:06:08.183Z,99.78
2022-09-24T04:07:12.820Z,99.74
2022-09-24T04:08:16.338Z,99.69
2022-09-24T04:09:27.151Z,99.33
2022-09-24T04:10:32.721Z,99.89
2022-09-24T04:11:36.148Z,100.00
2022-09-24T04:12:39.438Z,100.00
2022-09-24T04:13:54.579Z,99.76
2022-09-24T04:14:57.841Z,100.00
2022-09-24T04:16:06.799Z,100.00
2022-09-24T04:17:10.279Z,100.00
2022-09-24T04:18:14.571Z,100.00
2022-09-24T04:19:18.337Z,100.00
2022-09-24T04:20:23.721Z,100.00
2022-09-24T04:21:27.071Z,100.00
2022-09-24T04:22:30.301Z,100.00
2022-09-24T04:23:33.923Z,100.00
2022-09-24T04:24:36.795Z,100.00
2022-09-24T04:25:42.086Z,100.00
2022-09-24T04:26:47.327Z,100.00
2022-09-24T04:27:56.189Z,100.00
2022-09-24T04:29:00.960Z,100.00
2022-09-24T04:30:06.341Z,100.00
2022-09-24T04:31:13.840Z,100.00
2022-09-24T04:32:17.421Z,100.00
2022-09-24T04:33:21.605Z,100.00
2022-09-24T04:34:26.833Z,100.00
2022-09-24T04:35:32.548Z,100.00
2022-09-24T04:36:35.932Z,100.00
2022-09-24T04:37:38.715Z,100.00
2022-09-24T04:38:42.205Z,100.00
2022-09-24T04:39:47.483Z,100.00
2022-09-24T04:40:51.166Z,100.00
2022-09-24T04:41:53.977Z,100.00
2022-09-24T04:42:57.483Z,100.00
2022-09-24T04:44:01.262Z,100.00
2022-09-24T04:45:05.539Z,100.00
2022-09-24T04:46:10.966Z,100.00
2022-09-24T04:47:16.203Z,100.00
2022-09-24T04:48:20.518Z,100.00
2022-09-24T04:49:25.086Z,100.00
2022-09-24T04:50:31.315Z,100.00
2022-09-24T04:51:36.595Z,100.00
2022-09-24T04:52:41.033Z,100.00
2022-09-24T04:53:46.108Z,100.00
2022-09-24T04:54:50.657Z,100.00
2022-09-24T04:55:54.477Z,100.00
2022-09-24T04:56:57.980Z,100.00
2022-09-24T04:58:01.586Z,100.00
2022-09-24T04:59:04.362Z,100.00
2022-09-24T05:00:09.682Z,99.67
2022-09-24T05:01:15.151Z,99.92
2022-09-24T05:02:19.787Z,99.88
2022-09-24T05:03:25.181Z,99.24
2022-09-24T05:04:28.574Z,99.52
2022-09-24T05:05:35.528Z,99.43
2022-09-24T05:06:39.244Z,99.26
2022-09-24T05:07:44.609Z,98.96
2022-09-24T05:08:52.952Z,98.68
2022-09-24T05:09:56.545Z,98.75
2022-09-24T05:11:00.779Z,98.42
2022-09-24T05:12:04.182Z,98.45
2022-09-24T05:13:07.690Z,98.24
2022-09-24T05:14:12.335Z,97.92
2022-09-24T05:15:15.326Z,98.05
2022-09-24T05:16:19.821Z,98.80
2022-09-24T05:17:22.334Z,98.00
2022-09-24T05:18:25.940Z,98.03
2022-09-24T05:19:28.403Z,97.50
2022-09-24T05:20:32.744Z,98.11
2022-09-24T05:21:36.250Z,98.33
2022-09-24T05:22:43.201Z,97.36
2022-09-24T05:23:46.598Z,97.86
2022-09-24T05:24:51.880Z,97.26
2022-09-24T05:26:14.969Z,97.56
2022-09-24T05:27:22.615Z,97.27
2022-09-24T05:28:27.044Z,96.14
2022-09-24T05:29:30.551Z,97.12
2022-09-24T05:30:32.905Z,96.41
2022-09-24T05:31:38.432Z,95.30
2022-09-24T05:32:42.316Z,95.63
2022-09-24T05:33:46.764Z,94.97
2022-09-24T05:34:52.620Z,95.52
2022-09-24T05:35:55.758Z,95.24
2022-09-24T05:36:58.534Z,95.75
2022-09-24T05:38:01.932Z,95.75
2022-09-24T05:39:06.951Z,95.43
2022-09-24T05:40:29.561Z,95.63
2022-09-24T05:41:32.078Z,94.49
2022-09-24T05:42:36.109Z,94.30
2022-09-24T05:43:38.884Z,94.44
2022-09-24T05:44:51.308Z,93.82
2022-09-24T05:45:51.327Z,93.21
2022-09-24T05:46:54.979Z,93.64
2022-09-24T05:48:00.883Z,93.61
2022-09-24T05:49:04.289Z,93.09
2022-09-24T05:50:10.044Z,93.04
2022-09-24T05:51:13.655Z,93.44
2022-09-24T05:52:17.052Z,93.49
2022-09-24T05:53:21.085Z,93.58
2022-09-24T05:54:24.798Z,93.49
2022-09-24T05:55:31.994Z,94.36
2022-09-24T05:56:32.749Z,94.39
2022-09-24T05:57:37.969Z,95.62
2022-09-24T05:58:41.848Z,95.26
2022-09-24T05:59:46.391Z,95.35
2022-09-24T06:00:54.915Z,95.14
2022-09-24T06:01:58.580Z,94.82
2022-09-24T06:03:03.636Z,94.79
2022-09-24T06:04:08.784Z,93.58
2022-09-24T06:05:13.459Z,93.25
2022-09-24T06:06:17.971Z,92.79
2022-09-24T06:07:22.212Z,92.51
2022-09-24T06:08:25.924Z,92.45
2022-09-24T06:09:30.365Z,90.98
2022-09-24T06:10:33.770Z,90.79
2022-09-24T06:11:40.398Z,90.24
2022-09-24T06:12:43.497Z,90.51
2022-09-24T06:13:48.358Z,92.09
2022-09-24T06:14:51.140Z,91.40
2022-09-24T06:16:02.468Z,91.34
2022-09-24T06:17:05.455Z,90.25
2022-09-24T06:18:09.716Z,90.46
2022-09-24T06:19:13.192Z,90.06
2022-09-24T06:20:18.165Z,90.09
2022-09-24T06:21:23.651Z,89.53
2022-09-24T06:22:28.848Z,89.98
2022-09-24T06:23:32.796Z,91.06
2022-09-24T06:24:36.363Z,91.78
2022-09-24T06:25:40.181Z,90.54
2022-09-24T06:26:43.685Z,91.05
2022-09-24T06:27:47.921Z,91.34
2022-09-24T06:28:51.454Z,90.95
2022-09-24T06:29:54.818Z,90.43
2022-09-24T06:30:58.986Z,90.09
2022-09-24T06:32:02.872Z,89.42
2022-09-24T06:33:07.739Z,89.77
2022-09-24T06:34:13.922Z,88.82
2022-09-24T06:35:17.582Z,91.02
2022-09-24T06:36:20.868Z,91.11
2022-09-24T06:37:24.688Z,90.64
2022-09-24T06:38:28.293Z,89.82
2022-09-24T06:39:31.796Z,89.35
2022-09-24T06:40:37.300Z,89.76
2022-09-24T06:41:40.795Z,89.65
2022-09-24T06:42:48.924Z,88.93
2022-09-24T06:43:55.326Z,88.82
2022-09-24T06:44:58.646Z,88.49
2022-09-24T06:46:01.707Z,88.70
2022-09-24T06:47:05.808Z,87.81
2022-09-24T06:48:10.728Z,87.42
2022-09-24T06:49:13.678Z,86.96
2022-09-24T06:50:18.699Z,86.74
2022-09-24T06:51:22.470Z,88.19
2022-09-24T06:52:26.705Z,87.79
2022-09-24T06:53:31.252Z,87.45
2022-09-24T06:54:34.679Z,87.05
2022-09-24T06:55:38.995Z,86.73
2022-09-24T06:56:43.124Z,87.47
2022-09-24T06:57:53.647Z,86.79
2022-09-24T06:59:00.373Z,86.94
2022-09-24T07:00:04.921Z,86.60
2022-09-24T07:01:09.023Z,86.05
2022-09-24T07:02:12.576Z,85.27
2022-09-24T07:03:17.109Z,84.92
2022-09-24T07:04:20.820Z,86.80
2022-09-24T07:05:24.642Z,87.17
2022-09-24T07:06:30.132Z,86.05
2022-09-24T07:07:34.389Z,85.20
2022-09-24T07:08:38.084Z,85.34
2022-09-24T07:09:43.917Z,83.37
2022-09-24T07:10:49.603Z,84.35
2022-09-24T07:11:53.712Z,83.99
2022-09-24T07:12:57.194Z,83.37
2022-09-24T07:14:04.588Z,83.02
2022-09-24T07:15:09.663Z,82.69
2022-09-24T07:16:15.056Z,82.11
2022-09-24T07:17:18.651Z,82.13
2022-09-24T07:18:22.445Z,81.23
2022-09-24T07:19:25.769Z,82.19
2022-09-24T07:20:28.956Z,81.78
2022-09-24T07:21:32.446Z,81.48
2022-09-24T07:22:40.990Z,79.90
2022-09-24T07:23:43.966Z,79.50
2022-09-24T07:24:46.323Z,78.48
2022-09-24T07:25:50.554Z,78.59
2022-09-24T07:26:54.065Z,78.33
2022-09-24T07:27:58.509Z,78.65
2022-09-24T07:29:02.599Z,78.01
2022-09-24T07:30:08.734Z,77.92
2022-09-24T07:31:11.257Z,76.63
2022-09-24T07:32:16.087Z,74.48
2022-09-24T07:33:19.582Z,74.60
2022-09-24T07:34:23.302Z,73.12
2022-09-24T07:35:27.950Z,72.87
2022-09-24T07:36:32.188Z,72.17
2022-09-24T07:37:37.442Z,69.80
2022-09-24T07:38:40.870Z,70.51
2022-09-24T07:39:45.728Z,71.35
2022-09-24T07:40:50.680Z,71.39
2022-09-24T07:41:55.857Z,67.35
2022-09-24T07:42:59.695Z,67.66
2022-09-24T07:44:03.720Z,67.73
2022-09-24T07:46:17.277Z,67.58
2022-09-24T07:47:20.822Z,55.70
2022-09-24T07:48:23.903Z,55.89
2022-09-24T07:49:32.154Z,58.82
2022-09-24T07:50:37.312Z,58.55
2022-09-24T07:51:39.693Z,59.20
2022-09-24T07:52:42.933Z,61.09
2022-09-24T07:53:49.159Z,62.68
2022-09-24T07:54:52.971Z,64.25
2022-09-24T07:55:57.835Z,61.40
2022-09-24T07:57:01.137Z,61.12
2022-09-24T07:58:04.537Z,62.47
2022-09-24T07:59:09.239Z,56.82
2022-09-24T08:00:15.996Z,58.34
2022-09-24T08:01:20.505Z,55.48
2022-09-24T08:02:27.098Z,48.27
2022-09-24T08:03:32.852Z,42.31
2022-09-24T08:04:35.898Z,41.20
2022-09-24T08:05:48.681Z,42.03
2022-09-24T08:06:55.102Z,42.64
2022-09-24T08:08:01.773Z,46.07
2022-09-24T08:09:05.073Z,50.92
2022-09-24T08:10:08.158Z,52.88
2022-09-24T08:11:13.847Z,55.89
2022-09-24T08:12:16.316Z,57.84
2022-09-24T08:13:22.769Z,61.33
2022-09-24T08:14:25.829Z,62.51
2022-09-24T08:15:30.791Z,64.64
2022-09-24T08:16:35.270Z,65.69
2022-09-24T08:17:38.642Z,65.24
2022-09-24T08:18:44.131Z,65.30
2022-09-24T08:19:48.525Z,66.02
2022-09-24T08:20:53.149Z,64.37
2022-09-24T08:21:56.842Z,65.13
2022-09-24T08:23:04.214Z,66.92
2022-09-24T08:24:07.779Z,66.53
2022-09-24T08:25:11.621Z,66.90
2022-09-24T08:26:15.564Z,66.14
2022-09-24T08:27:21.883Z,67.29
2022-09-24T08:28:26.525Z,63.99
2022-09-24T08:29:30.152Z,61.70
2022-09-24T08:30:35.400Z,59.85
2022-09-24T08:31:43.821Z,60.27
2022-09-24T08:32:48.185Z,61.30
2022-09-24T08:33:52.108Z,62.07
2022-09-24T08:34:55.712Z,57.98
2022-09-24T08:36:03.819Z,57.88
2022-09-24T08:37:07.953Z,54.23
2022-09-24T08:38:10.933Z,56.10
2022-09-24T08:39:16.005Z,54.77
2022-09-24T08:40:23.328Z,56.00
2022-09-24T08:41:34.712Z,53.52
2022-09-24T08:42:39.368Z,53.98
2022-09-24T08:43:52.900Z,55.46
2022-09-24T08:45:15.937Z,58.29
2022-09-24T08:46:42.774Z,60.04
2022-09-24T08:47:56.265Z,60.89
2022-09-24T08:49:00.618Z,60.52
2022-09-24T08:50:06.098Z,57.31
2022-09-24T08:51:14.615Z,56.32
2022-09-24T08:52:32.217Z,55.80
2022-09-24T08:53:40.320Z,56.15
2022-09-24T08:54:45.601Z,56.18
2022-09-24T08:55:56.450Z,57.29
2022-09-24T08:57:04.508Z,57.25
2022-09-24T08:58:27.836Z,56.74
2022-09-24T08:59:33.255Z,57.04
2022-09-24T09:00:39.466Z,55.59
2022-09-24T09:01:59.758Z,57.41
2022-09-24T09:03:04.081Z,58.77
2022-09-24T09:04:13.332Z,58.40
2022-09-24T09:05:19.920Z,59.89
2022-09-24T09:06:40.787Z,61.36
2022-09-24T09:08:02.438Z,61.60
2022-09-24T09:09:13.822Z,63.01
2022-09-24T09:10:19.324Z,63.94
2022-09-24T09:11:24.864Z,65.33
2022-09-24T09:12:31.167Z,66.47
2022-09-24T09:13:37.827Z,67.08
2022-09-24T09:14:52.301Z,68.16
2022-09-24T09:16:05.261Z,67.94
2022-09-24T09:17:14.969Z,67.26
2022-09-24T09:18:23.355Z,67.48
2022-09-24T09:19:31.920Z,66.93
2022-09-24T09:20:42.829Z,66.52
2022-09-24T09:21:53.263Z,65.41
2022-09-24T09:22:57.457Z,64.43
2022-09-24T09:24:02.893Z,63.77
2022-09-24T09:25:14.709Z,62.19
2022-09-24T09:26:21.034Z,61.81
2022-09-24T09:27:27.921Z,61.74
2022-09-24T09:28:33.162Z,62.03
2022-09-24T09:29:38.354Z,62.11
2022-09-24T09:30:58.594Z,60.90
2022-09-24T09:32:19.405Z,60.98
2022-09-24T09:33:25.704Z,61.75
2022-09-24T09:34:40.508Z,61.10
2022-09-24T09:35:48.715Z,61.99
2022-09-24T09:36:56.816Z,63.95
2022-09-24T09:39:33.694Z,64.24
2022-09-24T09:40:39.162Z,65.05
2022-09-24T09:41:43.451Z,63.90
2022-09-24T09:42:48.288Z,61.82
2022-09-24T09:43:54.756Z,61.33
2022-09-24T09:45:03.176Z,61.05
2022-09-24T09:46:19.100Z,60.87
2022-09-24T09:47:42.518Z,60.99
2022-09-24T09:48:47.590Z,60.09
2022-09-24T09:49:52.138Z,58.37
2022-09-24T09:50:59.809Z,58.44
2022-09-24T09:52:05.937Z,58.25
2022-09-24T09:53:24.007Z,58.83
2022-09-24T09:54:38.530Z,58.07
2022-09-24T09:55:40.999Z,57.98
2022-09-24T09:56:47.925Z,58.70
2022-09-24T09:57:52.829Z,59.38
2022-09-24T09:59:07.699Z,60.20
2022-09-24T10:00:13.240Z,60.88
2022-09-24T10:01:18.159Z,61.74
2022-09-24T10:02:33.469Z,62.39
2022-09-24T10:03:47.626Z,63.35
2022-09-24T10:04:54.164Z,64.22
2022-09-24T10:05:59.231Z,64.63
2022-09-24T10:07:11.836Z,63.93
2022-09-24T10:08:36.002Z,64.36
2022-09-24T10:09:40.663Z,64.04
2022-09-24T10:10:45.116Z,64.03
2022-09-24T10:11:48.298Z,64.36
2022-09-24T10:12:55.461Z,64.35
2022-09-24T10:14:03.373Z,65.78
2022-09-24T10:15:18.065Z,65.52
2022-09-24T10:16:23.560Z,66.13
2022-09-24T10:17:29.009Z,64.83
2022-09-24T10:18:34.079Z,64.46
2022-09-24T10:19:40.617Z,63.73
2022-09-24T10:20:45.168Z,63.59
2022-09-24T10:21:49.194Z,61.29
2022-09-24T10:22:56.245Z,60.84
2022-09-24T10:24:02.729Z,61.55
2022-09-24T10:25:07.020Z,61.03
2022-09-24T10:26:10.734Z,61.29
2022-09-24T10:27:15.381Z,61.98
2022-09-24T10:28:38.109Z,62.10
2022-09-24T10:30:00.113Z,63.54
2022-09-24T10:31:08.537Z,63.86
2022-09-24T10:32:19.023Z,63.30
2022-09-24T10:33:25.032Z,67.52
2022-09-24T10:34:29.582Z,67.97
2022-09-24T10:35:39.247Z,69.46
2022-09-24T10:36:45.576Z,70.54
2022-09-24T10:37:53.151Z,69.54
2022-09-24T10:39:17.862Z,70.94
2022-09-24T10:40:24.815Z,71.53
2022-09-24T10:41:31.351Z,71.40
2022-09-24T10:42:34.851Z,72.06
2022-09-24T10:43:39.008Z,72.59
2022-09-24T10:44:42.385Z,72.10
2022-09-24T10:45:55.708Z,69.51
2022-09-24T10:47:01.227Z,71.92
2022-09-24T10:48:10.760Z,70.91
2022-09-24T10:49:21.889Z,69.41
2022-09-24T10:50:29.992Z,67.06
2022-09-24T10:51:46.342Z,69.12
2022-09-24T10:52:54.423Z,68.54
2022-09-24T10:54:00.858Z,68.39
2022-09-24T10:55:13.182Z,67.84
2022-09-24T10:56:24.270Z,69.39
2022-09-24T10:57:45.448Z,68.71
2022-09-24T10:58:54.168Z,69.31
2022-09-24T11:00:03.603Z,70.57
2022-09-24T11:01:20.877Z,69.71
2022-09-24T11:02:43.832Z,69.04
2022-09-24T11:03:59.782Z,70.25
2022-09-24T11:05:05.166Z,71.61
2022-09-24T11:06:29.145Z,71.78
2022-09-24T11:07:55.978Z,70.17
2022-09-24T11:09:04.357Z,68.68
2022-09-24T11:10:10.274Z,69.75
2022-09-24T11:11:21.496Z,69.02
2022-09-24T11:12:44.751Z,67.97
2022-09-24T11:13:56.395Z,68.63
2022-09-24T11:15:17.657Z,67.39
2022-09-24T11:16:28.525Z,66.03
2022-09-24T11:17:36.987Z,65.03
2022-09-24T11:18:54.385Z,64.08
2022-09-24T11:20:13.201Z,63.34
2022-09-24T11:21:19.748Z,62.22
2022-09-24T11:22:25.578Z,61.67
2022-09-24T11:23:33.683Z,62.16
2022-09-24T11:24:39.069Z,62.35
2022-09-24T11:25:44.350Z,62.06
2022-09-24T11:27:05.820Z,62.13
2022-09-24T11:28:26.454Z,61.85
2022-09-24T11:29:42.389Z,62.54
2022-09-24T11:30:53.245Z,62.53
2022-09-24T11:32:16.444Z,62.29
2022-09-24T11:33:25.384Z,63.46
2022-09-24T11:34:37.350Z,64.88
2022-09-24T11:35:59.553Z,63.00
2022-09-24T11:37:10.600Z,62.85
2022-09-24T11:39:37.640Z,62.59
2022-09-24T11:41:01.401Z,62.04
2022-09-24T11:42:06.778Z,62.22
2022-09-24T11:43:22.313Z,61.32
2022-09-24T11:44:27.801Z,61.06
2022-09-24T11:45:45.973Z,61.74
2022-09-24T11:46:58.839Z,62.15
2022-09-24T11:48:05.791Z,61.48
2022-09-24T11:49:27.675Z,60.10
2022-09-24T11:50:48.829Z,60.42
2022-09-24T11:52:00.897Z,59.95
2022-09-24T11:53:06.090Z,59.39
2022-09-24T11:54:11.170Z,59.85
2022-09-24T11:55:26.554Z,58.91
2022-09-24T11:56:34.561Z,58.50
2022-09-24T11:57:39.942Z,58.10
2022-09-24T11:58:51.284Z,58.13
2022-09-24T11:59:59.610Z,57.40
2022-09-24T12:01:05.081Z,57.15
2022-09-24T12:02:27.997Z,57.99
2022-09-24T12:04:50.374Z,56.59
2022-09-24T12:06:01.092Z,55.85
2022-09-24T12:07:10.434Z,55.53
2022-09-24T12:08:15.595Z,56.41
2022-09-24T12:09:20.145Z,54.71
2022-09-24T12:10:32.547Z,55.08
2022-09-24T12:11:37.836Z,54.41
2022-09-24T12:12:42.068Z,54.03
2022-09-24T12:13:59.215Z,54.46
2022-09-24T12:15:04.324Z,55.41
2022-09-24T12:16:10.069Z,56.68
2022-09-24T12:17:17.493Z,56.91
2022-09-24T12:18:26.015Z,56.89
2022-09-24T12:19:34.747Z,57.01
2022-09-24T12:20:40.549Z,56.72
2022-09-24T12:21:47.085Z,57.23
2022-09-24T12:22:53.506Z,56.49
2022-09-24T12:24:02.727Z,56.15
2022-09-24T12:25:03.548Z,55.46
2022-09-24T12:26:07.369Z,55.90
2022-09-24T12:27:13.636Z,56.01
2022-09-24T12:28:38.833Z,56.62
2022-09-24T12:30:22.533Z,56.39
2022-09-24T12:31:49.179Z,57.58
2022-09-24T12:33:05.184Z,59.78
2022-09-24T12:34:12.426Z,60.74
2022-09-24T12:35:34.840Z,62.24
2022-09-24T12:36:39.046Z,62.70
2022-09-24T12:37:44.352Z,67.49
2022-09-24T12:38:50.795Z,69.79
2022-09-24T12:40:00.578Z,74.97
2022-09-24T12:41:13.462Z,79.57
2022-09-24T12:42:19.163Z,80.91
2022-09-24T12:43:25.380Z,79.02
2022-09-24T12:44:29.539Z,80.41
2022-09-24T12:45:33.751Z,81.25
2022-09-24T12:46:48.178Z,82.85
2022-09-24T12:48:00.546Z,81.41
2022-09-24T12:49:14.863Z,81.27
2022-09-24T12:50:23.349Z,80.17
2022-09-24T12:51:28.773Z,80.72
2022-09-24T12:52:42.957Z,79.24
2022-09-24T12:53:48.369Z,80.45
2022-09-24T12:54:56.624Z,77.42
2022-09-24T12:56:00.386Z,79.37
2022-09-24T12:57:25.719Z,79.17
2022-09-24T12:58:33.361Z,78.39
2022-09-24T12:59:38.743Z,79.67
2022-09-24T13:00:43.499Z,78.60
2022-09-24T13:01:45.966Z,77.52
2022-09-24T13:02:52.909Z,75.86
2022-09-24T13:04:17.333Z,76.80
2022-09-24T13:05:27.578Z,77.39
2022-09-24T13:06:34.858Z,78.48
2022-09-24T13:07:40.146Z,76.74
2022-09-24T13:08:44.280Z,77.10
2022-09-24T13:09:49.361Z,77.20
2022-09-24T13:10:57.659Z,77.82
2022-09-24T13:12:01.686Z,77.47
2022-09-24T13:13:17.830Z,78.46
2022-09-24T13:14:22.588Z,76.88
2022-09-24T13:15:36.829Z,76.34
2022-09-24T13:16:41.924Z,74.87
2022-09-24T13:17:45.534Z,76.20
2022-09-24T13:18:53.243Z,76.30
2022-09-24T13:19:58.074Z,74.56
2022-09-24T13:21:03.145Z,77.09
2022-09-24T13:22:06.880Z,76.97
2022-09-24T13:23:15.328Z,77.80
2022-09-24T13:24:20.554Z,76.41
2022-09-24T13:25:28.137Z,76.80
2022-09-24T13:26:37.177Z,76.85
2022-09-24T13:27:42.458Z,74.44
2022-09-24T13:28:48.698Z,76.57
2022-09-24T13:29:56.048Z,74.22
2022-09-24T13:31:16.233Z,73.98
2022-09-24T13:32:21.516Z,75.48
2022-09-24T13:33:30.273Z,74.51
2022-09-24T13:34:34.927Z,73.13
2022-09-24T13:35:43.967Z,74.33
2022-09-24T13:38:16.549Z,72.88
2022-09-24T13:39:28.020Z,73.79
2022-09-24T13:40:33.569Z,73.14
2022-09-24T13:41:48.180Z,73.48
2022-09-24T13:42:52.417Z,74.47
2022-09-24T13:43:58.771Z,74.17
2022-09-24T13:45:10.047Z,74.43
2022-09-24T13:46:18.328Z,73.09
2022-09-24T13:47:34.116Z,74.15
2022-09-24T13:48:40.548Z,73.32
2022-09-24T13:49:45.784Z,74.54
2022-09-24T13:50:51.002Z,74.56
2022-09-24T13:51:57.842Z,74.89
2022-09-24T13:53:04.018Z,73.81
2022-09-24T13:54:08.517Z,74.46
2022-09-24T13:55:19.852Z,73.56
2022-09-24T13:56:23.978Z,73.13
2022-09-24T13:57:29.053Z,73.31
2022-09-24T13:58:37.469Z,72.79
2022-09-24T13:59:40.975Z,72.24
2022-09-24T14:00:44.028Z,72.85
2022-09-24T14:01:48.441Z,73.34
2022-09-24T14:03:02.827Z,74.16
2022-09-24T14:04:19.224Z,74.53
2022-09-24T14:05:23.310Z,74.02
2022-09-24T14:06:33.226Z,74.15
2022-09-24T14:07:37.267Z,74.35
2022-09-24T14:08:44.948Z,74.17
2022-09-24T14:09:48.864Z,74.13
2022-09-24T14:10:52.377Z,74.02
2022-09-24T14:12:02.157Z,74.34
2022-09-24T14:13:21.774Z,73.40
2022-09-24T14:14:28.686Z,74.27
2022-09-24T14:15:32.179Z,74.22
2022-09-24T14:16:36.531Z,74.72
2022-09-24T14:17:40.037Z,74.86
2022-09-24T14:18:42.644Z,74.16
2022-09-24T14:19:49.111Z,74.70
2022-09-24T14:21:01.931Z,75.07
2022-09-24T14:22:08.258Z,75.00
2022-09-24T14:23:13.646Z,74.18
2022-09-24T14:24:23.350Z,74.62
2022-09-24T14:25:27.653Z,74.77
2022-09-24T14:26:40.437Z,74.39
2022-09-24T14:27:45.313Z,75.20